MWI034 FWKI-FLKK
Flight info
| Callsign | MWI034 |
|---|---|
| Flight time | 1h 1m |
| Altitude | 32000 |
| Route | UTOLA1A UTOLA DCT IBNOP IBNOP1A |
| Aircraft | B738/M-SDE2E3FGHIRWXY/LB1 |
Departure
| Time | 2026-04-28 15:38 |
|---|---|
| Airport | Kamuzu International Airport (FWKI) |
Arrival
| Time | 2026-04-28 16:39 |
|---|---|
| Airport | Kenneth Kaunda International Airport (FLKK) |
| Time | Latitude | Longitude | Altitude | Speed | Heading |
|---|---|---|---|---|---|
| 2026-04-28 15:08 | -13.78157 | 33.77840 | 4029 ft | 0 kts | 130° |
| 2026-04-28 15:19 | -13.78156 | 33.77840 | 4029 ft | 0 kts | 130° |
| 2026-04-28 15:25 | -13.78156 | 33.77839 | 4029 ft | 0 kts | 130° |
| 2026-04-28 15:33 | -13.78158 | 33.77842 | 4029 ft | 2 kts | 131° |
| 2026-04-28 15:34 | -13.78172 | 33.77858 | 4029 ft | 4 kts | 131° |
| 2026-04-28 15:34 | -13.78202 | 33.77876 | 4030 ft | 6 kts | 187° |
| 2026-04-28 15:34 | -13.78244 | 33.77844 | 4030 ft | 9 kts | 219° |
| 2026-04-28 15:34 | -13.78299 | 33.77797 | 4030 ft | 12 kts | 219° |
| 2026-04-28 15:35 | -13.78361 | 33.77745 | 4030 ft | 10 kts | 221° |
| 2026-04-28 15:35 | -13.78295 | 33.77602 | 4029 ft | 15 kts | 310° |
| 2026-04-28 15:35 | -13.78222 | 33.77513 | 4029 ft | 18 kts | 311° |
| 2026-04-28 15:36 | -13.78139 | 33.77409 | 4029 ft | 20 kts | 309° |
| 2026-04-28 15:36 | -13.78043 | 33.77293 | 4029 ft | 22 kts | 311° |
| 2026-04-28 15:36 | -13.77940 | 33.77165 | 4029 ft | 23 kts | 309° |
| 2026-04-28 15:36 | -13.77853 | 33.77059 | 4029 ft | 13 kts | 310° |
| 2026-04-28 15:37 | -13.77818 | 33.76990 | 4030 ft | 11 kts | 271° |
| 2026-04-28 15:37 | -13.77840 | 33.76923 | 4030 ft | 10 kts | 228° |
| 2026-04-28 15:37 | -13.77893 | 33.76879 | 4031 ft | 10 kts | 216° |
| 2026-04-28 15:37 | -13.77928 | 33.76867 | 4031 ft | 6 kts | 159° |
| 2026-04-28 15:38 | -13.78043 | 33.77003 | 4029 ft | 53 kts | 130° |
| 2026-04-28 15:38 | -13.78425 | 33.77473 | 4029 ft | 116 kts | 130° |
| 2026-04-28 15:38 | -13.79055 | 33.78248 | 4037 ft | 165 kts | 128° |
| 2026-04-28 15:38 | -13.79808 | 33.79176 | 4647 ft | 169 kts | 129° |
| 2026-04-28 15:39 | -13.80618 | 33.80050 | 5357 ft | 172 kts | 148° |
| 2026-04-28 15:39 | -13.81882 | 33.80267 | 5595 ft | 205 kts | 191° |
| 2026-04-28 15:39 | -13.83135 | 33.79427 | 5767 ft | 234 kts | 232° |
| 2026-04-28 15:39 | -13.83705 | 33.77784 | 5940 ft | 262 kts | 267° |
| 2026-04-28 15:40 | -13.83448 | 33.75848 | 6285 ft | 282 kts | 280° |
| 2026-04-28 15:40 | -13.83039 | 33.73882 | 7028 ft | 281 kts | 280° |
| 2026-04-28 15:40 | -13.82627 | 33.71889 | 7643 ft | 288 kts | 280° |
| 2026-04-28 15:40 | -13.82236 | 33.69845 | 8313 ft | 293 kts | 279° |
| 2026-04-28 15:41 | -13.81864 | 33.67773 | 9043 ft | 295 kts | 279° |
| 2026-04-28 15:41 | -13.81503 | 33.65722 | 9848 ft | 296 kts | 278° |
| 2026-04-28 15:41 | -13.81138 | 33.63628 | 10527 ft | 298 kts | 279° |
| 2026-04-28 15:41 | -13.80758 | 33.61444 | 10861 ft | 317 kts | 278° |
| 2026-04-28 15:42 | -13.80364 | 33.59165 | 11086 ft | 336 kts | 279° |
| 2026-04-28 15:42 | -13.79948 | 33.56764 | 11556 ft | 345 kts | 279° |
| 2026-04-28 15:42 | -13.79523 | 33.54317 | 12176 ft | 350 kts | 279° |
| 2026-04-28 15:42 | -13.79092 | 33.51837 | 12817 ft | 353 kts | 280° |
| 2026-04-28 15:43 | -13.78665 | 33.49346 | 13520 ft | 355 kts | 277° |
| 2026-04-28 15:43 | -13.78620 | 33.46793 | 14019 ft | 361 kts | 262° |
| 2026-04-28 15:43 | -13.79225 | 33.44296 | 14733 ft | 358 kts | 252° |
| 2026-04-28 15:43 | -13.79984 | 33.41843 | 15299 ft | 363 kts | 251° |
| 2026-04-28 15:44 | -13.80763 | 33.39353 | 15842 ft | 368 kts | 251° |
| 2026-04-28 15:44 | -13.81543 | 33.36842 | 16467 ft | 369 kts | 251° |
| 2026-04-28 15:44 | -13.82060 | 33.35169 | 16880 ft | 371 kts | 252° |
| 2026-04-28 15:44 | -13.82839 | 33.32628 | 17422 ft | 375 kts | 252° |
| 2026-04-28 15:45 | -13.83626 | 33.30043 | 17957 ft | 380 kts | 251° |
| 2026-04-28 15:45 | -13.84415 | 33.27436 | 18510 ft | 383 kts | 251° |
| 2026-04-28 15:45 | -13.85206 | 33.24814 | 18987 ft | 386 kts | 252° |
| 2026-04-28 15:45 | -13.86006 | 33.22154 | 19444 ft | 390 kts | 252° |
| 2026-04-28 15:46 | -13.86813 | 33.19467 | 19892 ft | 394 kts | 252° |
| 2026-04-28 15:46 | -13.87624 | 33.16763 | 20353 ft | 398 kts | 252° |
| 2026-04-28 15:46 | -13.88442 | 33.14034 | 20777 ft | 402 kts | 251° |
| 2026-04-28 15:46 | -13.89277 | 33.11271 | 21197 ft | 406 kts | 251° |
| 2026-04-28 15:47 | -13.90117 | 33.08483 | 21644 ft | 410 kts | 251° |
| 2026-04-28 15:47 | -13.90962 | 33.05669 | 22081 ft | 413 kts | 251° |
| 2026-04-28 15:47 | -13.91812 | 33.02831 | 22502 ft | 417 kts | 251° |
| 2026-04-28 15:47 | -13.92662 | 32.99991 | 22913 ft | 420 kts | 251° |
| 2026-04-28 15:48 | -13.93463 | 32.97311 | 23296 ft | 423 kts | 251° |
| 2026-04-28 15:48 | -13.94334 | 32.94398 | 23686 ft | 427 kts | 251° |
| 2026-04-28 15:48 | -13.95210 | 32.91465 | 24022 ft | 430 kts | 251° |
| 2026-04-28 15:48 | -13.96083 | 32.88540 | 24386 ft | 432 kts | 252° |
| 2026-04-28 15:49 | -13.96963 | 32.85591 | 24747 ft | 434 kts | 252° |
| 2026-04-28 15:49 | -13.97861 | 32.82577 | 25116 ft | 436 kts | 252° |
| 2026-04-28 15:49 | -13.98757 | 32.79574 | 25457 ft | 439 kts | 252° |
| 2026-04-28 15:49 | -13.99655 | 32.76561 | 25813 ft | 441 kts | 252° |
| 2026-04-28 15:50 | -14.00557 | 32.73533 | 26167 ft | 443 kts | 252° |
| 2026-04-28 15:50 | -14.01464 | 32.70484 | 26500 ft | 446 kts | 252° |
| 2026-04-28 15:50 | -14.02376 | 32.67422 | 26838 ft | 448 kts | 252° |
| 2026-04-28 15:50 | -14.03282 | 32.64373 | 27167 ft | 450 kts | 252° |
| 2026-04-28 15:51 | -14.04211 | 32.61250 | 27498 ft | 453 kts | 252° |
| 2026-04-28 15:51 | -14.05136 | 32.58135 | 27798 ft | 456 kts | 252° |
| 2026-04-28 15:51 | -14.06065 | 32.55010 | 28118 ft | 458 kts | 252° |
| 2026-04-28 15:51 | -14.06998 | 32.51866 | 28470 ft | 459 kts | 252° |
| 2026-04-28 15:52 | -14.07929 | 32.48727 | 28912 ft | 458 kts | 252° |
| 2026-04-28 15:52 | -14.08858 | 32.45591 | 29426 ft | 455 kts | 252° |
| 2026-04-28 15:52 | -14.09780 | 32.42481 | 29908 ft | 454 kts | 252° |
| 2026-04-28 15:52 | -14.10691 | 32.39406 | 30269 ft | 454 kts | 253° |
| 2026-04-28 15:53 | -14.11614 | 32.36289 | 30660 ft | 453 kts | 253° |
| 2026-04-28 15:53 | -14.12507 | 32.33272 | 31130 ft | 449 kts | 253° |
| 2026-04-28 15:53 | -14.13414 | 32.30205 | 31578 ft | 447 kts | 253° |
| 2026-04-28 15:53 | -14.14323 | 32.27131 | 31766 ft | 447 kts | 253° |
| 2026-04-28 15:54 | -14.15226 | 32.24072 | 31995 ft | 445 kts | 253° |
| 2026-04-28 15:54 | -14.16128 | 32.21020 | 31988 ft | 446 kts | 253° |
| 2026-04-28 15:54 | -14.17906 | 32.14993 | 33215 ft | 438 kts | 253° |
| 2026-04-28 15:55 | -14.18785 | 32.12013 | 32941 ft | 429 kts | 253° |
| 2026-04-28 15:55 | -14.19644 | 32.09100 | 32681 ft | 420 kts | 253° |
| 2026-04-28 15:55 | -14.20489 | 32.06232 | 32433 ft | 418 kts | 253° |
| 2026-04-28 15:55 | -14.21324 | 32.03396 | 32241 ft | 419 kts | 253° |
| 2026-04-28 15:56 | -14.22170 | 32.00520 | 32134 ft | 418 kts | 253° |
| 2026-04-28 15:56 | -14.22990 | 31.97734 | 32089 ft | 413 kts | 253° |
| 2026-04-28 15:56 | -14.24611 | 31.92219 | 32102 ft | 413 kts | 253° |
| 2026-04-28 15:57 | -14.26292 | 31.86496 | 32022 ft | 422 kts | 253° |
| 2026-04-28 15:57 | -14.27976 | 31.80756 | 31994 ft | 414 kts | 253° |
| 2026-04-28 15:58 | -14.29612 | 31.75175 | 32001 ft | 405 kts | 253° |
| 2026-04-28 15:58 | -14.31247 | 31.69590 | 32008 ft | 407 kts | 253° |
| 2026-04-28 15:59 | -14.32888 | 31.63980 | 32007 ft | 410 kts | 253° |
| 2026-04-28 15:59 | -14.34536 | 31.58343 | 32004 ft | 412 kts | 253° |
| 2026-04-28 16:00 | -14.36189 | 31.52681 | 32001 ft | 413 kts | 253° |
| 2026-04-28 16:00 | -14.37847 | 31.47001 | 32001 ft | 413 kts | 253° |
| 2026-04-28 16:01 | -14.39496 | 31.41341 | 31998 ft | 411 kts | 253° |
| 2026-04-28 16:01 | -14.41139 | 31.35699 | 31999 ft | 409 kts | 253° |
| 2026-04-28 16:02 | -14.42771 | 31.30088 | 31999 ft | 407 kts | 253° |
| 2026-04-28 16:02 | -14.44387 | 31.24530 | 32000 ft | 406 kts | 253° |
| 2026-04-28 16:03 | -14.46008 | 31.18948 | 32002 ft | 406 kts | 253° |
| 2026-04-28 16:03 | -14.47631 | 31.13357 | 32004 ft | 407 kts | 253° |
| 2026-04-28 16:04 | -14.49253 | 31.07763 | 32003 ft | 407 kts | 253° |
| 2026-04-28 16:04 | -14.50877 | 31.02154 | 32002 ft | 408 kts | 253° |
| 2026-04-28 16:05 | -14.52482 | 30.96605 | 32002 ft | 409 kts | 253° |
| 2026-04-28 16:05 | -14.54105 | 30.90985 | 32001 ft | 409 kts | 253° |
| 2026-04-28 16:06 | -14.55729 | 30.85361 | 32001 ft | 408 kts | 253° |
| 2026-04-28 16:06 | -14.57347 | 30.79749 | 32000 ft | 407 kts | 253° |
| 2026-04-28 16:07 | -14.58962 | 30.74142 | 32000 ft | 407 kts | 253° |
| 2026-04-28 16:08 | -14.61375 | 30.65759 | 32001 ft | 406 kts | 253° |
| 2026-04-28 16:08 | -14.62979 | 30.60176 | 31999 ft | 405 kts | 253° |
| 2026-04-28 16:09 | -14.65374 | 30.51833 | 32002 ft | 405 kts | 253° |
| 2026-04-28 16:10 | -14.67774 | 30.43460 | 32001 ft | 405 kts | 253° |
| 2026-04-28 16:10 | -14.70170 | 30.35088 | 32000 ft | 405 kts | 253° |
| 2026-04-28 16:11 | -14.73354 | 30.23942 | 32002 ft | 404 kts | 253° |
| 2026-04-28 16:12 | -14.75741 | 30.15572 | 32007 ft | 405 kts | 253° |
| 2026-04-28 16:13 | -14.78145 | 30.07191 | 32004 ft | 405 kts | 253° |
| 2026-04-28 16:14 | -14.81296 | 29.96106 | 32004 ft | 406 kts | 253° |
| 2026-04-28 16:15 | -14.84476 | 29.84883 | 32002 ft | 406 kts | 253° |
| 2026-04-28 16:15 | -14.85265 | 29.82094 | 31819 ft | 402 kts | 253° |
| 2026-04-28 16:15 | -14.86041 | 29.79353 | 31563 ft | 394 kts | 253° |
| 2026-04-28 16:16 | -14.87562 | 29.73949 | 30821 ft | 388 kts | 254° |
| 2026-04-28 16:16 | -14.88315 | 29.71279 | 30452 ft | 385 kts | 254° |
| 2026-04-28 16:17 | -14.89804 | 29.66007 | 29710 ft | 380 kts | 253° |
| 2026-04-28 16:17 | -14.90542 | 29.63394 | 29338 ft | 377 kts | 253° |
| 2026-04-28 16:17 | -14.91266 | 29.60835 | 28957 ft | 374 kts | 253° |
| 2026-04-28 16:17 | -14.91995 | 29.58257 | 28569 ft | 372 kts | 254° |
| 2026-04-28 16:18 | -14.92716 | 29.55699 | 28191 ft | 369 kts | 253° |
| 2026-04-28 16:18 | -14.93432 | 29.53156 | 27815 ft | 367 kts | 254° |
| 2026-04-28 16:18 | -14.94142 | 29.50632 | 27444 ft | 364 kts | 254° |
| 2026-04-28 16:18 | -14.94847 | 29.48129 | 27081 ft | 362 kts | 254° |
| 2026-04-28 16:19 | -14.95547 | 29.45641 | 26718 ft | 359 kts | 254° |
| 2026-04-28 16:19 | -14.96243 | 29.43168 | 26363 ft | 357 kts | 254° |
| 2026-04-28 16:19 | -14.96932 | 29.40716 | 26012 ft | 354 kts | 254° |
| 2026-04-28 16:19 | -14.97617 | 29.38281 | 25667 ft | 352 kts | 254° |
| 2026-04-28 16:20 | -14.98297 | 29.35861 | 25318 ft | 349 kts | 254° |
| 2026-04-28 16:20 | -14.98972 | 29.33456 | 24978 ft | 347 kts | 254° |
| 2026-04-28 16:20 | -14.99650 | 29.31081 | 24667 ft | 344 kts | 253° |
| 2026-04-28 16:20 | -15.00370 | 29.28736 | 24423 ft | 340 kts | 252° |
| 2026-04-28 16:21 | -15.01107 | 29.26405 | 24179 ft | 342 kts | 252° |
| 2026-04-28 16:21 | -15.01844 | 29.24083 | 23897 ft | 338 kts | 252° |
| 2026-04-28 16:21 | -15.02574 | 29.21779 | 23554 ft | 336 kts | 252° |
| 2026-04-28 16:21 | -15.03298 | 29.19482 | 23212 ft | 334 kts | 252° |
| 2026-04-28 16:22 | -15.04014 | 29.17201 | 22867 ft | 333 kts | 252° |
| 2026-04-28 16:22 | -15.04725 | 29.14931 | 22521 ft | 331 kts | 252° |
| 2026-04-28 16:22 | -15.05432 | 29.12672 | 22175 ft | 330 kts | 252° |
| 2026-04-28 16:22 | -15.06136 | 29.10420 | 21828 ft | 328 kts | 252° |
| 2026-04-28 16:23 | -15.06836 | 29.08179 | 21484 ft | 327 kts | 252° |
| 2026-04-28 16:23 | -15.07534 | 29.05944 | 21141 ft | 325 kts | 252° |
| 2026-04-28 16:23 | -15.08229 | 29.03716 | 20795 ft | 324 kts | 252° |
| 2026-04-28 16:23 | -15.08917 | 29.01504 | 20461 ft | 322 kts | 252° |
| 2026-04-28 16:24 | -15.09572 | 28.99401 | 20137 ft | 321 kts | 252° |
| 2026-04-28 16:24 | -15.10257 | 28.97201 | 19800 ft | 320 kts | 252° |
| 2026-04-28 16:24 | -15.10938 | 28.95013 | 19464 ft | 318 kts | 252° |
| 2026-04-28 16:24 | -15.11619 | 28.92831 | 19100 ft | 318 kts | 252° |
| 2026-04-28 16:25 | -15.12296 | 28.90657 | 18784 ft | 316 kts | 252° |
| 2026-04-28 16:25 | -15.12965 | 28.88498 | 18464 ft | 314 kts | 252° |
| 2026-04-28 16:25 | -15.13631 | 28.86353 | 18143 ft | 313 kts | 252° |
| 2026-04-28 16:25 | -15.14297 | 28.84211 | 17814 ft | 311 kts | 252° |
| 2026-04-28 16:26 | -15.14957 | 28.82086 | 17487 ft | 310 kts | 252° |
| 2026-04-28 16:26 | -15.15522 | 28.79942 | 17157 ft | 308 kts | 264° |
| 2026-04-28 16:26 | -15.15449 | 28.77743 | 16887 ft | 304 kts | 276° |
| 2026-04-28 16:26 | -15.15223 | 28.75571 | 16556 ft | 303 kts | 276° |
| 2026-04-28 16:27 | -15.15069 | 28.74135 | 16347 ft | 302 kts | 276° |
| 2026-04-28 16:27 | -15.14764 | 28.71250 | 15924 ft | 301 kts | 276° |
| 2026-04-28 16:27 | -15.14331 | 28.66967 | 15310 ft | 298 kts | 276° |
| 2026-04-28 16:28 | -15.14122 | 28.64840 | 15004 ft | 296 kts | 276° |
| 2026-04-28 16:28 | -15.13985 | 28.63436 | 14801 ft | 295 kts | 276° |
| 2026-04-28 16:28 | -15.13712 | 28.60618 | 14394 ft | 293 kts | 276° |
| 2026-04-28 16:28 | -15.13578 | 28.59233 | 14194 ft | 292 kts | 276° |
| 2026-04-28 16:29 | -15.13174 | 28.55059 | 13587 ft | 290 kts | 276° |
| 2026-04-28 16:29 | -15.12768 | 28.50854 | 12759 ft | 294 kts | 276° |
| 2026-04-28 16:30 | -15.12498 | 28.48066 | 12330 ft | 293 kts | 276° |
| 2026-04-28 16:30 | -15.12360 | 28.46648 | 12110 ft | 293 kts | 276° |
| 2026-04-28 16:30 | -15.12157 | 28.44554 | 11788 ft | 292 kts | 276° |
| 2026-04-28 16:30 | -15.11925 | 28.42476 | 11491 ft | 290 kts | 277° |
| 2026-04-28 16:31 | -15.11667 | 28.40413 | 11187 ft | 288 kts | 277° |
| 2026-04-28 16:31 | -15.11412 | 28.38392 | 10905 ft | 286 kts | 277° |
| 2026-04-28 16:31 | -15.11157 | 28.36353 | 10618 ft | 285 kts | 277° |
| 2026-04-28 16:31 | -15.10904 | 28.34316 | 10331 ft | 285 kts | 277° |
| 2026-04-28 16:32 | -15.10653 | 28.32287 | 10044 ft | 284 kts | 277° |
| 2026-04-28 16:32 | -15.11235 | 28.28379 | 9463 ft | 282 kts | 234° |
| 2026-04-28 16:32 | -15.12671 | 28.27035 | 9190 ft | 280 kts | 209° |
| 2026-04-28 16:33 | -15.14505 | 28.26388 | 8913 ft | 280 kts | 189° |
| 2026-04-28 16:33 | -15.15809 | 28.26223 | 8731 ft | 279 kts | 186° |
| 2026-04-28 16:33 | -15.18367 | 28.25943 | 8348 ft | 279 kts | 186° |
| 2026-04-28 16:33 | -15.20290 | 28.25721 | 8066 ft | 277 kts | 187° |
| 2026-04-28 16:34 | -15.22198 | 28.25494 | 7778 ft | 275 kts | 187° |
| 2026-04-28 16:34 | -15.24097 | 28.25277 | 7505 ft | 273 kts | 186° |
| 2026-04-28 16:34 | -15.25955 | 28.25086 | 7279 ft | 265 kts | 186° |
| 2026-04-28 16:34 | -15.27747 | 28.24904 | 6980 ft | 250 kts | 186° |
| 2026-04-28 16:35 | -15.29437 | 28.24900 | 6684 ft | 238 kts | 165° |
| 2026-04-28 16:35 | -15.30750 | 28.25802 | 6453 ft | 223 kts | 124° |
| 2026-04-28 16:35 | -15.31264 | 28.27244 | 6284 ft | 208 kts | 101° |
| 2026-04-28 16:35 | -15.31556 | 28.28681 | 6060 ft | 201 kts | 101° |
| 2026-04-28 16:36 | -15.31756 | 28.30087 | 5845 ft | 194 kts | 96° |
| 2026-04-28 16:36 | -15.31884 | 28.31440 | 5645 ft | 188 kts | 95° |
| 2026-04-28 16:36 | -15.31997 | 28.32761 | 5452 ft | 181 kts | 95° |
| 2026-04-28 16:36 | -15.32108 | 28.34057 | 5324 ft | 181 kts | 95° |
| 2026-04-28 16:37 | -15.32219 | 28.35344 | 5270 ft | 178 kts | 95° |
| 2026-04-28 16:37 | -15.32330 | 28.36637 | 5083 ft | 183 kts | 95° |
| 2026-04-28 16:37 | -15.32441 | 28.37917 | 4858 ft | 173 kts | 95° |
| 2026-04-28 16:38 | -15.32638 | 28.40194 | 4438 ft | 157 kts | 95° |
| 2026-04-28 16:38 | -15.32736 | 28.41316 | 4219 ft | 155 kts | 95° |
| 2026-04-28 16:38 | -15.32827 | 28.42421 | 4029 ft | 153 kts | 95° |
| 2026-04-28 16:38 | -15.32925 | 28.43518 | 3822 ft | 154 kts | 95° |
| 2026-04-28 16:39 | -15.33017 | 28.44566 | 3779 ft | 125 kts | 95° |
| 2026-04-28 16:39 | -15.33074 | 28.45241 | 3775 ft | 63 kts | 96° |
| 2026-04-28 16:39 | -15.33103 | 28.45541 | 3775 ft | 59 kts | 96° |
| 2026-04-28 16:39 | -15.33130 | 28.45851 | 3777 ft | 25 kts | 95° |
| 2026-04-28 16:40 | -15.33119 | 28.45960 | 3775 ft | 10 kts | 43° |
| 2026-04-28 16:40 | -15.33053 | 28.45973 | 3780 ft | 10 kts | 351° |
| 2026-04-28 16:40 | -15.32993 | 28.45945 | 3780 ft | 9 kts | 328° |
| 2026-04-28 16:40 | -15.32951 | 28.45893 | 3776 ft | 9 kts | 301° |
| 2026-04-28 16:41 | -15.32935 | 28.45831 | 3782 ft | 9 kts | 274° |
| 2026-04-28 16:41 | -15.32930 | 28.45763 | 3773 ft | 11 kts | 275° |
| 2026-04-28 16:41 | -15.32923 | 28.45672 | 3779 ft | 15 kts | 274° |
| 2026-04-28 16:41 | -15.32912 | 28.45549 | 3774 ft | 19 kts | 274° |
| 2026-04-28 16:42 | -15.32901 | 28.45394 | 3773 ft | 23 kts | 275° |
| 2026-04-28 16:42 | -15.32884 | 28.45229 | 3774 ft | 23 kts | 276° |
| 2026-04-28 16:42 | -15.32870 | 28.45070 | 3773 ft | 22 kts | 275° |
| 2026-04-28 16:42 | -15.32856 | 28.44916 | 3773 ft | 20 kts | 275° |
| 2026-04-28 16:43 | -15.32844 | 28.44776 | 3773 ft | 17 kts | 275° |
| 2026-04-28 16:43 | -15.32830 | 28.44683 | 3778 ft | 11 kts | 302° |
| 2026-04-28 16:43 | -15.32775 | 28.44633 | 3776 ft | 10 kts | 320° |
| 2026-04-28 16:43 | -15.32729 | 28.44595 | 3776 ft | 6 kts | 322° |
| 2026-04-28 16:44 | -15.32690 | 28.44606 | 3776 ft | 6 kts | 32° |
| 2026-04-28 16:44 | -15.32654 | 28.44629 | 3773 ft | 6 kts | 32° |
| 2026-04-28 16:44 | -15.32641 | 28.44653 | 3776 ft | 3 kts | 128° |
| 2026-04-28 16:44 | -15.32642 | 28.44655 | 3775 ft | 0 kts | 129° |